sensor_id;sensor_type;location;lat;lon;timestamp;pressure;altitude;pressure_sealevel;temperature;humidity
11672;BME280;5892;43.412;24.612;2024-03-17T00:01:36;100551.53;;;5.60;76.84
11672;BME280;5892;43.412;24.612;2024-03-17T00:04:01;100551.75;;;5.73;75.97
11672;BME280;5892;43.412;24.612;2024-03-17T00:06:28;100553.66;;;5.70;76.44
11672;BME280;5892;43.412;24.612;2024-03-17T00:08:53;100562.88;;;5.74;76.15
11672;BME280;5892;43.412;24.612;2024-03-17T00:11:20;100556.84;;;5.57;76.84
11672;BME280;5892;43.412;24.612;2024-03-17T00:13:45;100555.69;;;5.47;76.76
11672;BME280;5892;43.412;24.612;2024-03-17T00:16:11;100552.50;;;5.42;77.40
11672;BME280;5892;43.412;24.612;2024-03-17T00:18:38;100559.25;;;5.44;77.01
11672;BME280;5892;43.412;24.612;2024-03-17T00:21:04;100549.41;;;5.35;77.61
11672;BME280;5892;43.412;24.612;2024-03-17T00:23:29;100557.44;;;5.29;77.38
11672;BME280;5892;43.412;24.612;2024-03-17T00:25:55;100559.19;;;5.28;77.88
11672;BME280;5892;43.412;24.612;2024-03-17T00:28:20;100548.47;;;5.36;76.91
11672;BME280;5892;43.412;24.612;2024-03-17T00:30:46;100557.09;;;5.53;75.74
11672;BME280;5892;43.412;24.612;2024-03-17T00:33:12;100556.59;;;5.46;76.54
11672;BME280;5892;43.412;24.612;2024-03-17T00:35:37;100547.66;;;5.36;76.61
11672;BME280;5892;43.412;24.612;2024-03-17T00:38:03;100536.38;;;5.38;75.90
11672;BME280;5892;43.412;24.612;2024-03-17T00:40:37;100557.97;;;5.36;76.36
11672;BME280;5892;43.412;24.612;2024-03-17T00:43:02;100549.09;;;5.24;77.19
11672;BME280;5892;43.412;24.612;2024-03-17T00:45:28;100553.16;;;5.12;77.49
11672;BME280;5892;43.412;24.612;2024-03-17T00:47:53;100549.50;;;5.16;76.95
11672;BME280;5892;43.412;24.612;2024-03-17T00:50:19;100545.56;;;5.09;77.47
11672;BME280;5892;43.412;24.612;2024-03-17T00:52:44;100547.75;;;4.99;77.92
11672;BME280;5892;43.412;24.612;2024-03-17T00:55:10;100542.47;;;5.02;77.68
11672;BME280;5892;43.412;24.612;2024-03-17T00:57:36;100546.88;;;5.00;77.93
11672;BME280;5892;43.412;24.612;2024-03-17T01:00:04;100553.66;;;5.01;77.03
11672;BME280;5892;43.412;24.612;2024-03-17T01:02:30;100550.66;;;4.93;77.94
11672;BME280;5892;43.412;24.612;2024-03-17T01:04:55;100550.28;;;5.01;78.37
11672;BME280;5892;43.412;24.612;2024-03-17T01:07:21;100552.78;;;5.02;78.30
11672;BME280;5892;43.412;24.612;2024-03-17T01:09:47;100551.50;;;4.94;78.05
11672;BME280;5892;43.412;24.612;2024-03-17T01:12:13;100554.53;;;5.02;77.62
11672;BME280;5892;43.412;24.612;2024-03-17T01:14:39;100546.41;;;4.92;77.89
11672;BME280;5892;43.412;24.612;2024-03-17T01:17:04;100547.97;;;4.77;78.65
11672;BME280;5892;43.412;24.612;2024-03-17T01:19:30;100545.78;;;4.87;78.74
11672;BME280;5892;43.412;24.612;2024-03-17T01:21:56;100551.56;;;4.92;78.68
11672;BME280;5892;43.412;24.612;2024-03-17T01:24:22;100536.38;;;4.86;78.87
11672;BME280;5892;43.412;24.612;2024-03-17T01:26:50;100549.88;;;4.91;78.98
11672;BME280;5892;43.412;24.612;2024-03-17T01:29:15;100546.19;;;4.97;77.88
11672;BME280;5892;43.412;24.612;2024-03-17T01:31:41;100534.13;;;4.80;78.53
11672;BME280;5892;43.412;24.612;2024-03-17T01:34:06;100552.63;;;4.88;78.52
11672;BME280;5892;43.412;24.612;2024-03-17T01:36:33;100542.69;;;4.80;78.63
11672;BME280;5892;43.412;24.612;2024-03-17T01:38:59;100539.06;;;4.67;78.98
11672;BME280;5892;43.412;24.612;2024-03-17T01:41:25;100537.59;;;4.79;78.81
11672;BME280;5892;43.412;24.612;2024-03-17T01:43:50;100546.34;;;4.76;78.24
11672;BME280;5892;43.412;24.612;2024-03-17T01:46:17;100534.59;;;4.70;79.03
11672;BME280;5892;43.412;24.612;2024-03-17T01:48:43;100547.81;;;4.63;79.08
11672;BME280;5892;43.412;24.612;2024-03-17T01:51:12;100549.19;;;4.70;79.06
11672;BME280;5892;43.412;24.612;2024-03-17T01:53:39;100557.69;;;4.72;78.36
11672;BME280;5892;43.412;24.612;2024-03-17T01:56:05;100559.13;;;4.60;78.70
11672;BME280;5892;43.412;24.612;2024-03-17T01:58:34;100555.84;;;4.57;79.30
11672;BME280;5892;43.412;24.612;2024-03-17T02:01:00;100551.97;;;4.48;78.77
11672;BME280;5892;43.412;24.612;2024-03-17T02:03:26;100553.19;;;4.41;80.12
11672;BME280;5892;43.412;24.612;2024-03-17T02:05:52;100559.09;;;4.43;79.34
11672;BME280;5892;43.412;24.612;2024-03-17T02:08:18;100555.53;;;4.45;78.54
11672;BME280;5892;43.412;24.612;2024-03-17T02:10:44;100555.59;;;4.44;78.47
11672;BME280;5892;43.412;24.612;2024-03-17T02:13:09;100556.00;;;4.53;77.83
11672;BME280;5892;43.412;24.612;2024-03-17T02:15:36;100553.56;;;4.50;78.64
11672;BME280;5892;43.412;24.612;2024-03-17T02:18:02;100559.78;;;4.46;78.53
11672;BME280;5892;43.412;24.612;2024-03-17T02:20:28;100562.94;;;4.34;78.63
11672;BME280;5892;43.412;24.612;2024-03-17T02:23:12;100556.97;;;4.51;78.90
11672;BME280;5892;43.412;24.612;2024-03-17T02:25:38;100557.47;;;4.40;78.20
11672;BME280;5892;43.412;24.612;2024-03-17T02:28:03;100557.03;;;4.32;78.90
11672;BME280;5892;43.412;24.612;2024-03-17T02:30:30;100556.19;;;4.12;79.70
11672;BME280;5892;43.412;24.612;2024-03-17T02:32:55;100559.59;;;4.13;79.50
11672;BME280;5892;43.412;24.612;2024-03-17T02:35:23;100559.53;;;4.14;79.88
11672;BME280;5892;43.412;24.612;2024-03-17T02:37:49;100555.22;;;4.15;79.29
11672;BME280;5892;43.412;24.612;2024-03-17T02:40:14;100559.31;;;4.19;79.46
11672;BME280;5892;43.412;24.612;2024-03-17T02:42:41;100557.56;;;4.20;78.71
11672;BME280;5892;43.412;24.612;2024-03-17T02:45:11;100563.44;;;4.23;78.92
11672;BME280;5892;43.412;24.612;2024-03-17T02:47:40;100549.25;;;4.14;79.56
11672;BME280;5892;43.412;24.612;2024-03-17T02:50:07;100554.72;;;4.07;80.28
11672;BME280;5892;43.412;24.612;2024-03-17T02:52:33;100557.16;;;4.10;80.24
11672;BME280;5892;43.412;24.612;2024-03-17T02:54:59;100559.75;;;4.10;80.37
11672;BME280;5892;43.412;24.612;2024-03-17T02:57:26;100561.88;;;4.00;80.41
11672;BME280;5892;43.412;24.612;2024-03-17T02:59:57;100551.13;;;3.92;80.21
11672;BME280;5892;43.412;24.612;2024-03-17T03:02:23;100556.13;;;4.14;78.94
11672;BME280;5892;43.412;24.612;2024-03-17T03:04:50;100556.88;;;4.16;78.70
11672;BME280;5892;43.412;24.612;2024-03-17T03:07:15;100556.19;;;4.12;79.40
11672;BME280;5892;43.412;24.612;2024-03-17T03:09:41;100554.09;;;4.21;79.22
11672;BME280;5892;43.412;24.612;2024-03-17T03:12:07;100553.47;;;3.96;79.98
11672;BME280;5892;43.412;24.612;2024-03-17T03:14:33;100543.19;;;3.77;80.69
11672;BME280;5892;43.412;24.612;2024-03-17T03:16:59;100550.97;;;3.76;81.38
11672;BME280;5892;43.412;24.612;2024-03-17T03:19:25;100549.19;;;3.78;81.22
11672;BME280;5892;43.412;24.612;2024-03-17T03:21:51;100554.22;;;3.80;81.20
11672;BME280;5892;43.412;24.612;2024-03-17T03:24:16;100545.75;;;3.77;81.09
11672;BME280;5892;43.412;24.612;2024-03-17T03:26:42;100560.34;;;3.77;81.05
11672;BME280;5892;43.412;24.612;2024-03-17T03:29:09;100555.97;;;3.79;80.69
11672;BME280;5892;43.412;24.612;2024-03-17T03:31:36;100557.22;;;3.89;80.75
11672;BME280;5892;43.412;24.612;2024-03-17T03:34:02;100552.97;;;3.88;79.99
11672;BME280;5892;43.412;24.612;2024-03-17T03:36:28;100548.00;;;3.85;80.88
11672;BME280;5892;43.412;24.612;2024-03-17T03:38:55;100555.66;;;3.87;80.82
11672;BME280;5892;43.412;24.612;2024-03-17T03:41:23;100558.06;;;3.90;79.93
11672;BME280;5892;43.412;24.612;2024-03-17T03:43:50;100563.38;;;3.87;79.73
11672;BME280;5892;43.412;24.612;2024-03-17T03:46:16;100562.31;;;3.72;80.38
11672;BME280;5892;43.412;24.612;2024-03-17T03:48:41;100567.19;;;3.78;79.92
11672;BME280;5892;43.412;24.612;2024-03-17T03:51:09;100571.81;;;3.70;81.32
11672;BME280;5892;43.412;24.612;2024-03-17T03:53:36;100570.13;;;3.69;80.61
11672;BME280;5892;43.412;24.612;2024-03-17T03:56:04;100562.34;;;3.70;80.51
11672;BME280;5892;43.412;24.612;2024-03-17T03:58:39;100560.25;;;3.59;80.57
11672;BME280;5892;43.412;24.612;2024-03-17T04:01:06;100551.97;;;3.53;80.40
11672;BME280;5892;43.412;24.612;2024-03-17T04:03:33;100568.16;;;3.55;81.67
11672;BME280;5892;43.412;24.612;2024-03-17T04:08:33;100562.97;;;3.36;81.86
11672;BME280;5892;43.412;24.612;2024-03-17T04:11:01;100580.19;;;3.54;80.54
11672;BME280;5892;43.412;24.612;2024-03-17T04:13:32;100584.59;;;3.32;82.62
11672;BME280;5892;43.412;24.612;2024-03-17T04:16:00;100582.00;;;3.32;82.71
11672;BME280;5892;43.412;24.612;2024-03-17T04:18:29;100571.97;;;3.46;82.02
11672;BME280;5892;43.412;24.612;2024-03-17T04:20:56;100581.56;;;3.43;82.61
11672;BME280;5892;43.412;24.612;2024-03-17T04:23:23;100579.84;;;3.43;82.83
11672;BME280;5892;43.412;24.612;2024-03-17T04:25:51;100584.34;;;3.38;82.15
11672;BME280;5892;43.412;24.612;2024-03-17T04:28:17;100577.00;;;3.49;82.47
11672;BME280;5892;43.412;24.612;2024-03-17T04:30:43;100586.75;;;3.41;81.55
11672;BME280;5892;43.412;24.612;2024-03-17T04:33:11;100579.03;;;3.41;81.04
11672;BME280;5892;43.412;24.612;2024-03-17T04:35:40;100586.56;;;3.46;81.08
11672;BME280;5892;43.412;24.612;2024-03-17T04:38:06;100598.38;;;3.50;81.93
11672;BME280;5892;43.412;24.612;2024-03-17T04:40:33;100586.09;;;3.56;80.66
11672;BME280;5892;43.412;24.612;2024-03-17T04:42:59;100593.97;;;3.72;80.67
11672;BME280;5892;43.412;24.612;2024-03-17T04:45:25;100595.13;;;3.86;79.75
11672;BME280;5892;43.412;24.612;2024-03-17T04:47:52;100599.53;;;4.03;78.83
11672;BME280;5892;43.412;24.612;2024-03-17T04:50:18;100597.00;;;4.01;79.04
11672;BME280;5892;43.412;24.612;2024-03-17T04:52:44;100605.69;;;4.37;76.81
11672;BME280;5892;43.412;24.612;2024-03-17T04:55:10;100607.06;;;4.44;77.99
11672;BME280;5892;43.412;24.612;2024-03-17T04:57:38;100615.31;;;4.69;77.12
11672;BME280;5892;43.412;24.612;2024-03-17T05:00:05;100621.53;;;4.65;77.15
11672;BME280;5892;43.412;24.612;2024-03-17T05:02:32;100621.31;;;4.87;75.99
11672;BME280;5892;43.412;24.612;2024-03-17T05:04:58;100625.88;;;5.00;75.04
11672;BME280;5892;43.412;24.612;2024-03-17T05:07:25;100621.75;;;5.15;73.50
11672;BME280;5892;43.412;24.612;2024-03-17T05:09:50;100629.47;;;5.15;73.91
11672;BME280;5892;43.412;24.612;2024-03-17T05:12:16;100624.47;;;5.29;73.50
11672;BME280;5892;43.412;24.612;2024-03-17T05:14:42;100627.97;;;5.79;70.49
11672;BME280;5892;43.412;24.612;2024-03-17T05:17:07;100626.66;;;5.88;71.08
11672;BME280;5892;43.412;24.612;2024-03-17T05:19:34;100622.31;;;6.21;69.75
11672;BME280;5892;43.412;24.612;2024-03-17T05:21:59;100619.72;;;6.06;69.93
11672;BME280;5892;43.412;24.612;2024-03-17T05:24:25;100626.50;;;6.56;68.57
11672;BME280;5892;43.412;24.612;2024-03-17T05:26:53;100628.94;;;6.89;67.72
11672;BME280;5892;43.412;24.612;2024-03-17T05:29:20;100628.94;;;6.89;66.96
11672;BME280;5892;43.412;24.612;2024-03-17T05:31:45;100629.19;;;7.01;67.18
11672;BME280;5892;43.412;24.612;2024-03-17T05:34:13;100636.28;;;6.97;67.67
11672;BME280;5892;43.412;24.612;2024-03-17T05:36:38;100640.75;;;7.09;67.30
11672;BME280;5892;43.412;24.612;2024-03-17T05:39:05;100639.53;;;7.31;66.37
11672;BME280;5892;43.412;24.612;2024-03-17T05:41:30;100640.25;;;7.78;64.95
11672;BME280;5892;43.412;24.612;2024-03-17T05:43:56;100637.25;;;7.55;65.57
11672;BME280;5892;43.412;24.612;2024-03-17T05:46:24;100639.66;;;7.44;65.80
11672;BME280;5892;43.412;24.612;2024-03-17T05:48:52;100642.81;;;7.78;65.59
11672;BME280;5892;43.412;24.612;2024-03-17T05:51:17;100631.97;;;8.28;63.65
11672;BME280;5892;43.412;24.612;2024-03-17T05:53:43;100632.50;;;8.62;62.59
11672;BME280;5892;43.412;24.612;2024-03-17T05:56:21;100631.47;;;8.65;63.07
11672;BME280;5892;43.412;24.612;2024-03-17T06:05:39;100637.19;;;8.70;64.48
11672;BME280;5892;43.412;24.612;2024-03-17T06:08:07;100649.50;;;8.94;63.64
11672;BME280;5892;43.412;24.612;2024-03-17T06:10:44;100647.66;;;8.96;64.18
11672;BME280;5892;43.412;24.612;2024-03-17T06:13:11;100643.97;;;9.25;62.53
11672;BME280;5892;43.412;24.612;2024-03-17T06:15:39;100646.91;;;9.59;62.85
11672;BME280;5892;43.412;24.612;2024-03-17T06:18:12;100641.84;;;9.71;62.73
11672;BME280;5892;43.412;24.612;2024-03-17T06:20:43;100651.06;;;10.00;60.85
11672;BME280;5892;43.412;24.612;2024-03-17T06:23:14;100648.38;;;10.02;61.33
11672;BME280;5892;43.412;24.612;2024-03-17T06:25:45;100650.81;;;10.29;60.76
11672;BME280;5892;43.412;24.612;2024-03-17T06:28:13;100656.75;;;10.31;61.24
11672;BME280;5892;43.412;24.612;2024-03-17T06:30:40;100662.25;;;10.27;60.66
11672;BME280;5892;43.412;24.612;2024-03-17T06:33:07;100657.22;;;10.49;60.79
11672;BME280;5892;43.412;24.612;2024-03-17T06:35:36;100659.75;;;10.75;60.04
11672;BME280;5892;43.412;24.612;2024-03-17T06:41:17;100638.66;;;10.67;60.10
11672;BME280;5892;43.412;24.612;2024-03-17T06:43:48;100670.72;;;11.27;58.91
11672;BME280;5892;43.412;24.612;2024-03-17T06:46:42;100671.81;;;11.47;57.68
11672;BME280;5892;43.412;24.612;2024-03-17T06:49:09;100666.13;;;11.30;58.61
11672;BME280;5892;43.412;24.612;2024-03-17T06:51:34;100669.41;;;11.79;58.34
11672;BME280;5892;43.412;24.612;2024-03-17T06:54:03;100662.44;;;12.14;56.88
11672;BME280;5892;43.412;24.612;2024-03-17T06:56:36;100657.56;;;11.64;57.82
11672;BME280;5892;43.412;24.612;2024-03-17T06:59:02;100650.25;;;12.03;56.41
11672;BME280;5892;43.412;24.612;2024-03-17T07:01:29;100668.09;;;11.85;57.53
11672;BME280;5892;43.412;24.612;2024-03-17T07:03:54;100667.44;;;11.94;56.98
11672;BME280;5892;43.412;24.612;2024-03-17T07:06:20;100666.84;;;11.91;58.16
11672;BME280;5892;43.412;24.612;2024-03-17T07:08:46;100663.75;;;12.08;57.17
11672;BME280;5892;43.412;24.612;2024-03-17T07:11:11;100655.44;;;12.25;56.50
11672;BME280;5892;43.412;24.612;2024-03-17T07:13:38;100661.25;;;12.84;54.79
11672;BME280;5892;43.412;24.612;2024-03-17T07:16:05;100665.59;;;12.95;55.45
11672;BME280;5892;43.412;24.612;2024-03-17T07:18:33;100663.41;;;12.79;55.75
11672;BME280;5892;43.412;24.612;2024-03-17T07:21:02;100661.56;;;13.23;54.69
11672;BME280;5892;43.412;24.612;2024-03-17T07:23:32;100660.69;;;13.34;54.15
11672;BME280;5892;43.412;24.612;2024-03-17T07:25:59;100666.94;;;12.89;55.74
11672;BME280;5892;43.412;24.612;2024-03-17T07:28:25;100662.59;;;12.78;56.17
11672;BME280;5892;43.412;24.612;2024-03-17T07:30:52;100668.09;;;12.53;57.75
11672;BME280;5892;43.412;24.612;2024-03-17T07:33:19;100670.59;;;12.54;57.74
11672;BME280;5892;43.412;24.612;2024-03-17T07:35:48;100667.25;;;12.63;56.92
11672;BME280;5892;43.412;24.612;2024-03-17T07:38:14;100663.53;;;12.66;57.34
11672;BME280;5892;43.412;24.612;2024-03-17T07:40:41;100654.72;;;12.90;56.60
11672;BME280;5892;43.412;24.612;2024-03-17T07:43:07;100661.38;;;12.82;57.21
11672;BME280;5892;43.412;24.612;2024-03-17T07:45:33;100658.03;;;13.13;56.72
11672;BME280;5892;43.412;24.612;2024-03-17T07:47:58;100662.78;;;12.87;57.18
11672;BME280;5892;43.412;24.612;2024-03-17T07:50:24;100661.19;;;12.95;56.64
11672;BME280;5892;43.412;24.612;2024-03-17T07:52:50;100655.50;;;13.23;56.04
11672;BME280;5892;43.412;24.612;2024-03-17T07:55:15;100650.53;;;13.19;56.07
11672;BME280;5892;43.412;24.612;2024-03-17T07:57:41;100651.63;;;12.85;57.77
11672;BME280;5892;43.412;24.612;2024-03-17T08:00:07;100651.22;;;13.00;57.19
11672;BME280;5892;43.412;24.612;2024-03-17T08:02:47;100643.47;;;13.10;58.06
11672;BME280;5892;43.412;24.612;2024-03-17T08:05:12;100645.44;;;13.18;56.82
11672;BME280;5892;43.412;24.612;2024-03-17T08:14:12;100637.13;;;13.24;56.13
11672;BME280;5892;43.412;24.612;2024-03-17T08:16:40;100645.91;;;13.23;56.84
11672;BME280;5892;43.412;24.612;2024-03-17T08:19:05;100641.19;;;13.17;56.57
11672;BME280;5892;43.412;24.612;2024-03-17T08:21:32;100640.31;;;13.28;55.66
11672;BME280;5892;43.412;24.612;2024-03-17T08:23:58;100637.81;;;13.26;56.65
11672;BME280;5892;43.412;24.612;2024-03-17T08:26:23;100633.00;;;13.64;55.44
11672;BME280;5892;43.412;24.612;2024-03-17T08:28:48;100630.91;;;13.88;54.07
11672;BME280;5892;43.412;24.612;2024-03-17T08:31:14;100632.22;;;13.73;53.95
11672;BME280;5892;43.412;24.612;2024-03-17T08:33:40;100628.97;;;13.60;54.18
11672;BME280;5892;43.412;24.612;2024-03-17T08:36:08;100634.41;;;13.47;54.20
11672;BME280;5892;43.412;24.612;2024-03-17T08:38:34;100621.34;;;13.77;52.69
11672;BME280;5892;43.412;24.612;2024-03-17T08:41:04;100621.19;;;13.69;53.44
11672;BME280;5892;43.412;24.612;2024-03-17T08:43:35;100615.81;;;14.02;52.04
11672;BME280;5892;43.412;24.612;2024-03-17T08:46:03;100622.34;;;14.27;51.21
11672;BME280;5892;43.412;24.612;2024-03-17T08:48:32;100603.25;;;14.56;50.44
11672;BME280;5892;43.412;24.612;2024-03-17T08:51:00;100607.00;;;14.73;50.39
11672;BME280;5892;43.412;24.612;2024-03-17T08:53:27;100606.47;;;14.79;49.88
11672;BME280;5892;43.412;24.612;2024-03-17T08:55:53;100599.44;;;14.69;48.81
11672;BME280;5892;43.412;24.612;2024-03-17T08:58:20;100612.81;;;14.86;48.84
11672;BME280;5892;43.412;24.612;2024-03-17T09:00:46;100599.97;;;15.02;48.03
11672;BME280;5892;43.412;24.612;2024-03-17T09:03:11;100608.22;;;15.17;47.49
11672;BME280;5892;43.412;24.612;2024-03-17T09:05:40;100604.63;;;15.18;46.40
11672;BME280;5892;43.412;24.612;2024-03-17T09:08:06;100606.72;;;15.15;46.63
11672;BME280;5892;43.412;24.612;2024-03-17T09:10:42;100597.09;;;14.86;45.28
11672;BME280;5892;43.412;24.612;2024-03-17T09:13:20;100602.81;;;15.38;44.90
11672;BME280;5892;43.412;24.612;2024-03-17T09:15:59;100607.19;;;15.38;44.35
11672;BME280;5892;43.412;24.612;2024-03-17T09:18:28;100600.16;;;15.48;44.55
11672;BME280;5892;43.412;24.612;2024-03-17T09:20:58;100596.03;;;15.45;44.55
11672;BME280;5892;43.412;24.612;2024-03-17T09:23:24;100601.25;;;15.55;44.46
11672;BME280;5892;43.412;24.612;2024-03-17T09:25:59;100595.53;;;15.70;42.93
11672;BME280;5892;43.412;24.612;2024-03-17T09:28:27;100584.22;;;15.69;41.67
11672;BME280;5892;43.412;24.612;2024-03-17T09:30:53;100582.94;;;15.36;43.70
11672;BME280;5892;43.412;24.612;2024-03-17T09:33:23;100581.25;;;15.54;44.72
11672;BME280;5892;43.412;24.612;2024-03-17T09:36:06;100580.91;;;15.77;43.97
11672;BME280;5892;43.412;24.612;2024-03-17T09:38:36;100584.88;;;15.81;42.53
11672;BME280;5892;43.412;24.612;2024-03-17T09:41:02;100585.34;;;15.76;43.17
11672;BME280;5892;43.412;24.612;2024-03-17T09:43:29;100578.09;;;15.88;43.88
11672;BME280;5892;43.412;24.612;2024-03-17T09:45:55;100579.09;;;15.77;43.32
11672;BME280;5892;43.412;24.612;2024-03-17T09:48:27;100578.78;;;15.43;44.04
11672;BME280;5892;43.412;24.612;2024-03-17T09:53:37;100574.47;;;15.24;44.61
11672;BME280;5892;43.412;24.612;2024-03-17T09:56:06;100574.53;;;15.42;44.24
11672;BME280;5892;43.412;24.612;2024-03-17T09:58:35;100578.34;;;15.57;44.22
11672;BME280;5892;43.412;24.612;2024-03-17T10:01:01;100569.16;;;15.81;42.40
11672;BME280;5892;43.412;24.612;2024-03-17T10:06:11;100566.47;;;16.18;39.35
11672;BME280;5892;43.412;24.612;2024-03-17T10:08:42;100563.34;;;16.33;39.54
11672;BME280;5892;43.412;24.612;2024-03-17T10:11:08;100567.13;;;16.02;39.98
11672;BME280;5892;43.412;24.612;2024-03-17T10:13:35;100561.69;;;16.32;39.86
11672;BME280;5892;43.412;24.612;2024-03-17T10:16:00;100571.16;;;16.43;40.02
11672;BME280;5892;43.412;24.612;2024-03-17T10:18:26;100569.63;;;16.22;39.45
11672;BME280;5892;43.412;24.612;2024-03-17T10:20:51;100564.22;;;15.78;39.72
11672;BME280;5892;43.412;24.612;2024-03-17T10:23:23;100566.69;;;15.79;36.86
11672;BME280;5892;43.412;24.612;2024-03-17T10:25:48;100552.47;;;16.10;37.02
11672;BME280;5892;43.412;24.612;2024-03-17T10:28:15;100556.00;;;16.36;35.52
11672;BME280;5892;43.412;24.612;2024-03-17T10:30:57;100558.91;;;16.33;35.32
11672;BME280;5892;43.412;24.612;2024-03-17T10:33:24;100552.09;;;16.58;36.38
11672;BME280;5892;43.412;24.612;2024-03-17T10:36:00;100551.06;;;16.51;32.26
11672;BME280;5892;43.412;24.612;2024-03-17T10:38:28;100548.78;;;16.38;33.45
11672;BME280;5892;43.412;24.612;2024-03-17T10:40:54;100541.25;;;16.35;34.46
11672;BME280;5892;43.412;24.612;2024-03-17T10:43:20;100547.69;;;16.41;35.48
11672;BME280;5892;43.412;24.612;2024-03-17T10:45:51;100541.75;;;16.39;35.30
11672;BME280;5892;43.412;24.612;2024-03-17T10:48:21;100540.34;;;16.45;34.31
11672;BME280;5892;43.412;24.612;2024-03-17T10:50:49;100544.31;;;16.13;34.81
11672;BME280;5892;43.412;24.612;2024-03-17T10:53:20;100545.22;;;16.21;33.39
11672;BME280;5892;43.412;24.612;2024-03-17T10:56:06;100541.38;;;16.52;32.87
11672;BME280;5892;43.412;24.612;2024-03-17T10:58:56;100533.22;;;16.55;32.97
11672;BME280;5892;43.412;24.612;2024-03-17T11:01:27;100529.53;;;16.48;31.14
11672;BME280;5892;43.412;24.612;2024-03-17T11:03:53;100530.94;;;16.42;31.87
11672;BME280;5892;43.412;24.612;2024-03-17T11:06:19;100529.03;;;16.44;32.61
11672;BME280;5892;43.412;24.612;2024-03-17T11:08:46;100520.75;;;16.03;33.22
11672;BME280;5892;43.412;24.612;2024-03-17T11:11:12;100515.84;;;16.18;32.42
11672;BME280;5892;43.412;24.612;2024-03-17T11:13:39;100524.88;;;16.06;32.88
11672;BME280;5892;43.412;24.612;2024-03-17T11:16:04;100515.97;;;16.16;31.19
11672;BME280;5892;43.412;24.612;2024-03-17T11:18:50;100507.28;;;16.16;30.69
11672;BME280;5892;43.412;24.612;2024-03-17T11:21:19;100513.28;;;16.44;31.89
11672;BME280;5892;43.412;24.612;2024-03-17T11:23:59;100512.81;;;16.67;31.44
11672;BME280;5892;43.412;24.612;2024-03-17T11:26:31;100511.44;;;16.63;29.97
11672;BME280;5892;43.412;24.612;2024-03-17T11:28:57;100508.75;;;16.72;30.03
11672;BME280;5892;43.412;24.612;2024-03-17T11:31:53;100512.59;;;16.60;31.07
11672;BME280;5892;43.412;24.612;2024-03-17T11:34:27;100508.66;;;16.64;31.07
11672;BME280;5892;43.412;24.612;2024-03-17T11:36:54;100505.59;;;16.87;31.64
11672;BME280;5892;43.412;24.612;2024-03-17T11:39:20;100505.94;;;16.92;32.39
11672;BME280;5892;43.412;24.612;2024-03-17T11:41:51;100497.97;;;17.02;32.29
11672;BME280;5892;43.412;24.612;2024-03-17T11:46:57;100497.09;;;17.19;33.11
11672;BME280;5892;43.412;24.612;2024-03-17T11:49:24;100497.50;;;17.06;32.63
11672;BME280;5892;43.412;24.612;2024-03-17T11:51:51;100494.31;;;16.76;31.83
11672;BME280;5892;43.412;24.612;2024-03-17T11:54:24;100487.28;;;17.03;31.96
11672;BME280;5892;43.412;24.612;2024-03-17T11:56:53;100484.97;;;17.26;32.00
11672;BME280;5892;43.412;24.612;2024-03-17T11:59:19;100471.94;;;17.17;32.70
11672;BME280;5892;43.412;24.612;2024-03-17T12:01:52;100474.66;;;17.33;32.37
11672;BME280;5892;43.412;24.612;2024-03-17T12:04:19;100479.63;;;17.44;31.62
11672;BME280;5892;43.412;24.612;2024-03-17T12:06:49;100472.53;;;17.37;31.68
11672;BME280;5892;43.412;24.612;2024-03-17T12:09:29;100469.00;;;17.62;31.95
11672;BME280;5892;43.412;24.612;2024-03-17T12:14:28;100464.16;;;17.33;33.29
11672;BME280;5892;43.412;24.612;2024-03-17T12:17:01;100469.59;;;17.48;33.34
11672;BME280;5892;43.412;24.612;2024-03-17T12:19:27;100465.50;;;17.45;33.43
11672;BME280;5892;43.412;24.612;2024-03-17T12:21:55;100466.53;;;17.61;34.61
11672;BME280;5892;43.412;24.612;2024-03-17T12:24:22;100466.31;;;17.46;35.25
11672;BME280;5892;43.412;24.612;2024-03-17T12:26:51;100465.53;;;17.11;36.49
11672;BME280;5892;43.412;24.612;2024-03-17T12:29:31;100455.41;;;16.90;35.69
11672;BME280;5892;43.412;24.612;2024-03-17T12:32:13;100459.13;;;17.13;34.96
11672;BME280;5892;43.412;24.612;2024-03-17T12:34:40;100449.56;;;16.78;34.92
11672;BME280;5892;43.412;24.612;2024-03-17T12:37:06;100453.91;;;16.69;34.71
11672;BME280;5892;43.412;24.612;2024-03-17T12:39:34;100450.88;;;16.82;35.54
11672;BME280;5892;43.412;24.612;2024-03-17T12:42:22;100448.78;;;16.86;35.73
11672;BME280;5892;43.412;24.612;2024-03-17T12:44:55;100455.22;;;16.65;35.72
11672;BME280;5892;43.412;24.612;2024-03-17T12:47:22;100449.28;;;16.63;33.88
11672;BME280;5892;43.412;24.612;2024-03-17T12:49:52;100443.38;;;16.87;34.40
11672;BME280;5892;43.412;24.612;2024-03-17T12:52:33;100455.53;;;17.14;34.94
11672;BME280;5892;43.412;24.612;2024-03-17T12:55:09;100438.34;;;17.28;34.72
11672;BME280;5892;43.412;24.612;2024-03-17T13:01:04;100448.38;;;17.33;33.75
11672;BME280;5892;43.412;24.612;2024-03-17T13:03:34;100443.91;;;17.25;34.05
11672;BME280;5892;43.412;24.612;2024-03-17T13:06:06;100443.94;;;17.33;33.61
11672;BME280;5892;43.412;24.612;2024-03-17T13:08:35;100432.53;;;17.17;36.51
11672;BME280;5892;43.412;24.612;2024-03-17T13:11:02;100428.19;;;16.47;38.36
11672;BME280;5892;43.412;24.612;2024-03-17T13:13:34;100434.69;;;16.61;39.83
11672;BME280;5892;43.412;24.612;2024-03-17T13:16:00;100427.88;;;16.50;40.99
11672;BME280;5892;43.412;24.612;2024-03-17T13:18:25;100424.03;;;16.62;41.34
11672;BME280;5892;43.412;24.612;2024-03-17T13:20:51;100434.66;;;16.34;40.47
11672;BME280;5892;43.412;24.612;2024-03-17T13:23:19;100428.41;;;16.53;41.36
11672;BME280;5892;43.412;24.612;2024-03-17T13:25:47;100414.81;;;16.58;42.06
11672;BME280;5892;43.412;24.612;2024-03-17T13:28:13;100412.97;;;16.50;42.83
11672;BME280;5892;43.412;24.612;2024-03-17T13:30:40;100414.66;;;16.59;42.05
11672;BME280;5892;43.412;24.612;2024-03-17T13:33:07;100413.38;;;16.64;41.44